Time;durP1;ratioP1;P1;durP2;ratioP2;P2;SDS_P1;SDS_P2;PMS_P1;PMS_P2;Temp;Humidity;BMP_temperature;BMP_pressure;BME280_temperature;BME280_humidity;BME280_pressure;Samples;Min_cycle;Max_cycle;Signal;HPM_P1;HPM_P2
2022/09/08 00:02:11;;;;;;;;;0.00;0.00;;;;;;;;5107634;27;62073;-76
2022/09/08 00:04:36;;;;;;;;;0.75;0.00;;;;;;;;5109015;27;61911;-76
2022/09/08 00:07:01;;;;;;;;;0.00;0.00;;;;;;;;5109220;27;61831;-76
2022/09/08 00:09:27;;;;;;;;;1.00;0.00;;;;;;;;5108072;27;61924;-76
2022/09/08 00:11:52;;;;;;;;;1.25;0.00;;;;;;;;5104386;27;62272;-77
2022/09/08 00:14:18;;;;;;;;;0.00;0.00;;;;;;;;5105287;27;62015;-77
2022/09/08 00:16:43;;;;;;;;;0.25;0.00;;;;;;;;5105862;27;61785;-76
2022/09/08 00:19:08;;;;;;;;;0.50;0.00;;;;;;;;5104687;27;61757;-76
2022/09/08 00:21:34;;;;;;;;;0.00;0.00;;;;;;;;5105466;27;61888;-76
2022/09/08 00:23:59;;;;;;;;;0.00;0.00;;;;;;;;5103302;27;62034;-76
2022/09/08 00:26:24;;;;;;;;;0.00;0.00;;;;;;;;5105807;27;61844;-76
2022/09/08 00:28:50;;;;;;;;;0.00;0.00;;;;;;;;5104623;27;63142;-76
2022/09/08 00:31:16;;;;;;;;;0.50;0.25;;;;;;;;5105015;27;61784;-76
2022/09/08 00:33:42;;;;;;;;;1.00;1.00;;;;;;;;5105503;27;62002;-76
2022/09/08 00:36:11;;;;;;;;;0.00;0.00;;;;;;;;5103650;27;61807;-76
2022/09/08 00:38:36;;;;;;;;;2.00;0.00;;;;;;;;5104296;27;61816;-77
2022/09/08 00:41:09;;;;;;;;;0.00;0.00;;;;;;;;5103590;27;61966;-76
2022/09/08 00:43:34;;;;;;;;;0.00;0.00;;;;;;;;5103819;27;61796;-76
2022/09/08 00:46:04;;;;;;;;;0.50;0.00;;;;;;;;5104852;27;61735;-76
2022/09/08 00:48:30;;;;;;;;;1.00;0.00;;;;;;;;5103162;27;63819;-76
2022/09/08 00:50:56;;;;;;;;;5.00;1.00;;;;;;;;5104729;27;61926;-76
2022/09/08 00:53:21;;;;;;;;;0.00;0.00;;;;;;;;5103228;27;61855;-76
2022/09/08 00:55:47;;;;;;;;;0.00;0.00;;;;;;;;5103311;27;62282;-76
2022/09/08 00:58:12;;;;;;;;;0.00;0.00;;;;;;;;5104201;27;61879;-76
2022/09/08 01:00:39;;;;;;;;;0.67;0.00;;;;;;;;5103147;27;61829;-76
2022/09/08 01:03:09;;;;;;;;;0.00;0.00;;;;;;;;5104687;27;61744;-76
2022/09/08 01:05:46;;;;;;;;;2.00;0.00;;;;;;;;5103451;27;62606;-76
2022/09/08 01:14:43;;;;;;;;;0.00;0.00;;;;;;;;5040912;28;61846;-76
2022/09/08 01:17:34;;;;;;;;;0.00;0.00;;;;;;;;5041206;28;62164;-76
2022/09/08 01:20:01;;;;;;;;;2.00;0.00;;;;;;;;5019680;28;64535;-76
2022/09/08 01:22:45;;;;;;;;;0.00;0.00;;;;;;;;5040255;28;61947;-76
2022/09/08 01:25:22;;;;;;;;;0.00;0.00;;;;;;;;5040242;28;61946;-76
2022/09/08 01:27:48;;;;;;;;;0.00;0.00;;;;;;;;5041224;28;61956;-76
2022/09/08 01:30:14;;;;;;;;;0.00;0.00;;;;;;;;5039615;28;64028;-77
2022/09/08 01:32:40;;;;;;;;;0.00;0.00;;;;;;;;5040871;28;61962;-76
2022/09/08 01:35:06;;;;;;;;;0.25;0.25;;;;;;;;5040613;28;61858;-76
2022/09/08 01:37:31;;;;;;;;;0.00;0.00;;;;;;;;5040603;28;61813;-77
2022/09/08 01:39:57;;;;;;;;;1.50;0.00;;;;;;;;5040110;28;63316;-76
2022/09/08 01:42:23;;;;;;;;;1.67;0.00;;;;;;;;5040566;28;61699;-77
2022/09/08 01:44:48;;;;;;;;;2.00;0.00;;;;;;;;5059444;27;61969;-76
2022/09/08 01:47:13;;;;;;;;;0.00;0.00;;;;;;;;5102883;27;62334;-77
2022/09/08 01:49:39;;;;;;;;;2.00;1.00;;;;;;;;5103559;27;62795;-77
2022/09/08 01:52:05;;;;;;;;;0.00;0.00;;;;;;;;5102389;27;62170;-76
2022/09/08 01:54:30;;;;;;;;;0.00;0.00;;;;;;;;5103757;27;62491;-76
2022/09/08 01:56:55;;;;;;;;;0.00;0.00;;;;;;;;5104141;27;61879;-76
2022/09/08 01:59:21;;;;;;;;;0.00;0.00;;;;;;;;5102803;27;61754;-77
2022/09/08 02:01:46;;;;;;;;;0.00;0.00;;;;;;;;5102338;27;61983;-76
2022/09/08 02:04:12;;;;;;;;;0.00;0.00;;;;;;;;5102170;27;61961;-76
2022/09/08 02:06:37;;;;;;;;;0.00;0.00;;;;;;;;5102349;27;61851;-76
2022/09/08 02:09:02;;;;;;;;;1.00;0.00;;;;;;;;5103277;27;62108;-76
2022/09/08 02:11:28;;;;;;;;;0.00;0.00;;;;;;;;5102023;27;61892;-76
2022/09/08 02:13:53;;;;;;;;;0.00;0.00;;;;;;;;5103783;27;61930;-77
2022/09/08 02:16:18;;;;;;;;;0.25;0.00;;;;;;;;5102083;27;61852;-76
2022/09/08 02:18:44;;;;;;;;;1.00;0.00;;;;;;;;5102710;27;61953;-76
2022/09/08 02:21:14;;;;;;;;;0.00;0.00;;;;;;;;5103520;27;61946;-76
2022/09/08 02:23:40;;;;;;;;;0.33;0.00;;;;;;;;5101693;27;61750;-76
2022/09/08 02:26:06;;;;;;;;;1.00;0.00;;;;;;;;5103553;27;61761;-76
2022/09/08 02:28:32;;;;;;;;;0.00;0.00;;;;;;;;5102653;27;61933;-76
2022/09/08 02:30:58;;;;;;;;;0.00;0.00;;;;;;;;5101509;27;61920;-76
2022/09/08 02:33:24;;;;;;;;;0.00;0.00;;;;;;;;5103061;27;61722;-76
2022/09/08 02:35:49;;;;;;;;;1.25;0.00;;;;;;;;5102867;27;61886;-76
2022/09/08 02:38:14;;;;;;;;;0.00;0.00;;;;;;;;5101499;27;62927;-76
2022/09/08 02:40:40;;;;;;;;;0.00;0.00;;;;;;;;5103078;27;61844;-76
2022/09/08 02:43:06;;;;;;;;;0.00;0.00;;;;;;;;5103425;27;61872;-76
2022/09/08 02:45:31;;;;;;;;;0.00;0.00;;;;;;;;5101264;27;61705;-76
2022/09/08 02:47:57;;;;;;;;;0.67;0.00;;;;;;;;5101215;27;63601;-76
2022/09/08 02:50:23;;;;;;;;;1.00;0.00;;;;;;;;5101791;27;62139;-76
2022/09/08 02:52:49;;;;;;;;;0.00;0.00;;;;;;;;5102919;27;61812;-77
2022/09/08 02:55:14;;;;;;;;;0.00;0.00;;;;;;;;5101457;27;61925;-76
2022/09/08 02:57:39;;;;;;;;;2.00;1.00;;;;;;;;5102361;27;62938;-76
2022/09/08 03:00:05;;;;;;;;;0.75;0.75;;;;;;;;5101024;27;61893;-76
2022/09/08 03:02:30;;;;;;;;;0.00;0.00;;;;;;;;5102959;27;61796;-76
2022/09/08 03:04:56;;;;;;;;;0.00;0.00;;;;;;;;5103009;27;61993;-76
2022/09/08 03:07:22;;;;;;;;;0.00;0.00;;;;;;;;5102524;27;62182;-76
2022/09/08 03:09:49;;;;;;;;;1.00;1.00;;;;;;;;5101385;27;61742;-76
2022/09/08 03:12:14;;;;;;;;;1.00;0.00;;;;;;;;5102827;27;62010;-76
2022/09/08 03:14:39;;;;;;;;;0.50;0.00;;;;;;;;5101010;27;61892;-76
2022/09/08 03:17:04;;;;;;;;;0.00;0.00;;;;;;;;5101955;27;63005;-76
2022/09/08 03:19:30;;;;;;;;;0.75;0.75;;;;;;;;5101388;27;62151;-77
2022/09/08 03:21:56;;;;;;;;;2.00;0.00;;;;;;;;5102715;27;61812;-76
2022/09/08 03:24:21;;;;;;;;;1.00;1.00;;;;;;;;5102779;27;61748;-76
2022/09/08 03:26:46;;;;;;;;;0.25;0.25;;;;;;;;5101847;27;62192;-76
2022/09/08 03:29:11;;;;;;;;;0.00;0.00;;;;;;;;5101222;27;61896;-76
2022/09/08 03:31:37;;;;;;;;;1.25;0.00;;;;;;;;5102108;27;61989;-76
2022/09/08 03:34:02;;;;;;;;;1.50;0.00;;;;;;;;5101497;27;62125;-76
2022/09/08 03:36:28;;;;;;;;;0.00;0.00;;;;;;;;5101744;27;62824;-76
2022/09/08 03:38:54;;;;;;;;;1.50;0.50;;;;;;;;5100940;27;61952;-76
2022/09/08 03:41:19;;;;;;;;;2.00;1.00;;;;;;;;5101121;27;62190;-76
2022/09/08 03:43:46;;;;;;;;;0.00;0.00;;;;;;;;5101166;27;62679;-76
2022/09/08 03:46:11;;;;;;;;;0.00;0.00;;;;;;;;5101876;27;62212;-77
2022/09/08 03:48:37;;;;;;;;;1.00;0.00;;;;;;;;5105905;27;61987;-76
2022/09/08 03:51:13;;;;;;;;;1.25;0.00;;;;;;;;5104524;27;61780;-76
2022/09/08 03:53:38;;;;;;;;;0.00;0.00;;;;;;;;5104367;27;62270;-76
2022/09/08 03:56:04;;;;;;;;;0.00;0.00;;;;;;;;5104975;27;62106;-76
2022/09/08 03:58:30;;;;;;;;;2.00;0.75;;;;;;;;5106016;27;61910;-76
2022/09/08 04:00:55;;;;;;;;;1.50;1.00;;;;;;;;5103442;27;62685;-76
2022/09/08 04:03:20;;;;;;;;;0.00;0.00;;;;;;;;5104303;27;61871;-76
2022/09/08 04:05:45;;;;;;;;;0.00;0.00;;;;;;;;5104940;27;62826;-76
2022/09/08 04:08:11;;;;;;;;;0.00;0.00;;;;;;;;5105843;27;61839;-76
2022/09/08 04:10:36;;;;;;;;;1.75;0.25;;;;;;;;5105873;27;61702;-76
2022/09/08 04:13:01;;;;;;;;;1.50;0.50;;;;;;;;5105622;27;62061;-76
2022/09/08 04:15:26;;;;;;;;;0.00;0.00;;;;;;;;5103021;27;64498;-76
2022/09/08 04:17:52;;;;;;;;;2.25;1.25;;;;;;;;5105172;27;61956;-76
2022/09/08 04:20:18;;;;;;;;;2.25;1.00;;;;;;;;5104315;27;61934;-76
2022/09/08 04:22:44;;;;;;;;;1.00;0.00;;;;;;;;5105658;27;61770;-76
2022/09/08 04:25:09;;;;;;;;;0.00;0.00;;;;;;;;5102823;27;63554;-76
2022/09/08 04:27:34;;;;;;;;;0.00;0.00;;;;;;;;5105413;27;61733;-76
2022/09/08 04:30:00;;;;;;;;;1.00;1.00;;;;;;;;5103353;27;61857;-77
2022/09/08 04:32:25;;;;;;;;;2.50;1.00;;;;;;;;5105788;27;61821;-76
2022/09/08 04:34:50;;;;;;;;;0.25;0.25;;;;;;;;5104167;27;62867;-77
2022/09/08 04:37:16;;;;;;;;;0.75;0.75;;;;;;;;5105188;27;61747;-76
2022/09/08 04:39:41;;;;;;;;;1.00;0.00;;;;;;;;5105250;27;61769;-76
2022/09/08 04:42:07;;;;;;;;;0.00;0.00;;;;;;;;5103749;27;62152;-77
2022/09/08 04:44:32;;;;;;;;;0.00;0.00;;;;;;;;5104194;27;61760;-76
2022/09/08 04:46:58;;;;;;;;;2.00;0.25;;;;;;;;5104723;27;61674;-76
2022/09/08 04:49:23;;;;;;;;;1.00;1.00;;;;;;;;5103593;27;61732;-76
2022/09/08 04:51:52;;;;;;;;;0.75;0.75;;;;;;;;5105178;27;61699;-77
2022/09/08 04:54:17;;;;;;;;;2.00;2.00;;;;;;;;5102826;27;63821;-76
2022/09/08 04:56:43;;;;;;;;;2.00;0.00;;;;;;;;5104764;27;61917;-76
2022/09/08 04:59:08;;;;;;;;;1.00;1.00;;;;;;;;5102853;27;61992;-75
2022/09/08 05:01:36;;;;;;;;;0.50;0.50;;;;;;;;5103347;27;61875;-77
2022/09/08 05:04:02;;;;;;;;;1.00;1.00;;;;;;;;5103991;27;62220;-76
2022/09/08 05:06:29;;;;;;;;;0.25;0.25;;;;;;;;5104783;27;61919;-76
2022/09/08 05:08:56;;;;;;;;;2.00;0.67;;;;;;;;5103409;27;61882;-76
2022/09/08 05:11:21;;;;;;;;;0.50;0.50;;;;;;;;5102926;27;62242;-75
2022/09/08 05:13:49;;;;;;;;;1.00;1.00;;;;;;;;5103765;27;61732;-78
2022/09/08 05:16:17;;;;;;;;;1.00;1.00;;;;;;;;5102771;27;61911;-74
2022/09/08 05:18:46;;;;;;;;;4.00;1.75;;;;;;;;5104338;27;61855;-74
2022/09/08 05:21:12;;;;;;;;;2.00;2.00;;;;;;;;5102568;27;61820;-77
2022/09/08 05:23:37;;;;;;;;;2.00;1.00;;;;;;;;5103299;27;61902;-76
2022/09/08 05:26:06;;;;;;;;;1.50;0.25;;;;;;;;5102703;27;62301;-76
2022/09/08 05:28:32;;;;;;;;;0.75;0.50;;;;;;;;5103154;27;62288;-76
2022/09/08 05:30:59;;;;;;;;;3.00;1.25;;;;;;;;5102503;27;61899;-76
2022/09/08 05:33:24;;;;;;;;;0.25;0.25;;;;;;;;5101913;27;63783;-77
2022/09/08 05:35:51;;;;;;;;;1.00;1.00;;;;;;;;5102596;27;61861;-76
2022/09/08 05:38:18;;;;;;;;;2.00;0.67;;;;;;;;5103977;27;61995;-76
2022/09/08 05:40:44;;;;;;;;;3.50;3.25;;;;;;;;5103422;27;61697;-76
2022/09/08 05:43:10;;;;;;;;;0.75;0.50;;;;;;;;5102724;27;61986;-76
2022/09/08 05:45:36;;;;;;;;;0.00;0.00;;;;;;;;5100202;27;62191;-78
2022/09/08 05:48:01;;;;;;;;;1.25;1.00;;;;;;;;5102109;27;62081;-77
2022/09/08 05:50:27;;;;;;;;;1.25;0.00;;;;;;;;5102165;27;62137;-77
2022/09/08 05:52:52;;;;;;;;;0.00;0.00;;;;;;;;5101323;27;64580;-75
2022/09/08 05:55:17;;;;;;;;;0.00;0.00;;;;;;;;5102825;27;61812;-75
2022/09/08 05:57:43;;;;;;;;;1.50;1.50;;;;;;;;5102814;27;62103;-77
2022/09/08 06:00:08;;;;;;;;;2.25;1.25;;;;;;;;5100642;27;61711;-77
2022/09/08 06:02:34;;;;;;;;;1.25;1.25;;;;;;;;5099638;27;64001;-76
2022/09/08 06:04:59;;;;;;;;;0.75;0.75;;;;;;;;5102725;27;61749;-77
2022/09/08 06:07:25;;;;;;;;;1.00;1.00;;;;;;;;5103522;27;61885;-76
2022/09/08 06:09:50;;;;;;;;;1.00;1.00;;;;;;;;5103035;27;61649;-77
2022/09/08 06:12:16;;;;;;;;;2.25;1.00;;;;;;;;5101064;27;63833;-74
2022/09/08 06:14:41;;;;;;;;;3.25;1.00;;;;;;;;5102621;27;61812;-74
2022/09/08 06:17:06;;;;;;;;;4.00;1.00;;;;;;;;5099916;27;61873;-74
2022/09/08 06:19:32;;;;;;;;;1.00;1.00;;;;;;;;5103236;27;61624;-74
2022/09/08 06:21:57;;;;;;;;;1.50;1.00;;;;;;;;5102920;27;62196;-74
2022/09/08 06:24:22;;;;;;;;;1.00;1.00;;;;;;;;5101490;27;61771;-74
2022/09/08 06:27:09;;;;;;;;;5.00;1.00;;;;;;;;5100640;27;61902;-74
2022/09/08 06:29:45;;;;;;;;;2.00;0.00;;;;;;;;5102192;27;61822;-75
2022/09/08 06:32:14;;;;;;;;;1.50;1.50;;;;;;;;5101686;27;61823;-74
2022/09/08 06:34:53;;;;;;;;;5.00;1.25;;;;;;;;5099329;27;61740;-74
2022/09/08 06:37:38;;;;;;;;;4.33;1.67;;;;;;;;5102360;27;61734;-75
2022/09/08 06:40:24;;;;;;;;;2.50;0.50;;;;;;;;5124005;27;61740;-77
2022/09/08 06:43:02;;;;;;;;;1.25;1.00;;;;;;;;5088960;27;64027;-77
2022/09/08 06:45:33;;;;;;;;;3.25;2.00;;;;;;;;5099075;27;61995;-77
2022/09/08 06:48:08;;;;;;;;;3.50;2.00;;;;;;;;5102981;27;61988;-77
2022/09/08 06:50:35;;;;;;;;;2.33;2.00;;;;;;;;5101525;27;61895;-77
2022/09/08 06:53:05;;;;;;;;;3.33;2.00;;;;;;;;5101949;27;63049;-77
2022/09/08 06:55:30;;;;;;;;;2.50;1.50;;;;;;;;5100278;27;62413;-78
2022/09/08 06:58:15;;;;;;;;;1.25;1.25;;;;;;;;5101217;27;62193;-77
2022/09/08 07:00:40;;;;;;;;;2.25;2.25;;;;;;;;5102615;27;61969;-78
2022/09/08 07:03:14;;;;;;;;;2.00;2.00;;;;;;;;5102205;27;62113;-77
2022/09/08 07:05:58;;;;;;;;;1.25;1.25;;;;;;;;5101128;27;61907;-77
2022/09/08 07:08:23;;;;;;;;;2.00;1.00;;;;;;;;5101479;27;61878;-77
2022/09/08 07:10:56;;;;;;;;;0.50;0.50;;;;;;;;5102641;27;62302;-77
2022/09/08 07:13:30;;;;;;;;;2.50;1.50;;;;;;;;5100987;27;65039;-77
2022/09/08 07:15:58;;;;;;;;;2.00;1.00;;;;;;;;5102270;27;61785;-77
2022/09/08 07:18:33;;;;;;;;;3.00;1.75;;;;;;;;5101176;27;61793;-77
2022/09/08 07:21:17;;;;;;;;;3.00;1.50;;;;;;;;5102990;27;61792;-78
2022/09/08 07:23:43;;;;;;;;;1.00;1.00;;;;;;;;5103533;27;63792;-77
2022/09/08 07:26:17;;;;;;;;;2.00;2.00;;;;;;;;5104818;27;61800;-77
2022/09/08 07:28:45;;;;;;;;;2.00;2.00;;;;;;;;5106208;27;61911;-77
2022/09/08 07:31:28;;;;;;;;;4.00;1.00;;;;;;;;5106161;27;61803;-77
2022/09/08 07:33:59;;;;;;;;;3.00;2.00;;;;;;;;5103969;27;64737;-78
2022/09/08 07:36:41;;;;;;;;;2.00;1.00;;;;;;;;5104758;27;62213;-77
2022/09/08 07:39:21;;;;;;;;;1.00;1.00;;;;;;;;5104711;27;61947;-78
2022/09/08 07:41:53;;;;;;;;;1.00;1.00;;;;;;;;5104510;27;61810;-78
2022/09/08 07:44:19;;;;;;;;;2.00;2.00;;;;;;;;5103920;27;64753;-77
2022/09/08 07:46:50;;;;;;;;;3.00;1.67;;;;;;;;5103655;27;62047;-78
2022/09/08 07:49:26;;;;;;;;;1.00;0.67;;;;;;;;5104183;27;61937;-78
2022/09/08 07:52:14;;;;;;;;;1.00;1.00;;;;;;;;5104122;27;61810;-78
2022/09/08 07:54:48;;;;;;;;;4.67;1.00;;;;;;;;5104442;27;63043;-78
2022/09/08 07:57:32;;;;;;;;;3.25;1.50;;;;;;;;5105854;27;61726;-78
2022/09/08 08:00:02;;;;;;;;;2.00;1.00;;;;;;;;5103781;27;61967;-78
2022/09/08 08:02:36;;;;;;;;;5.33;3.00;;;;;;;;5104411;27;61903;-78
2022/09/08 08:05:08;;;;;;;;;2.50;2.00;;;;;;;;5103152;27;63641;-78
2022/09/08 08:07:52;;;;;;;;;2.00;2.00;;;;;;;;5105420;27;61770;-78
2022/09/08 08:10:20;;;;;;;;;5.00;3.33;;;;;;;;5105533;27;61872;-78
2022/09/08 08:13:05;;;;;;;;;3.33;2.00;;;;;;;;5104135;27;61813;-78
2022/09/08 08:15:50;;;;;;;;;2.25;2.00;;;;;;;;5091807;27;64738;-79
2022/09/08 08:18:25;;;;;;;;;2.67;1.67;;;;;;;;5103723;27;61783;-77
2022/09/08 08:20:59;;;;;;;;;1.67;0.67;;;;;;;;5103977;27;61982;-78
2022/09/08 08:23:30;;;;;;;;;1.00;1.00;;;;;;;;5103533;27;61929;-77
2022/09/08 08:26:11;;;;;;;;;1.00;1.00;;;;;;;;5102990;27;63934;-79
2022/09/08 08:28:41;;;;;;;;;1.00;1.00;;;;;;;;5103851;27;61855;-78
2022/09/08 08:31:16;;;;;;;;;4.00;3.00;;;;;;;;5103447;27;61720;-78
2022/09/08 08:33:43;;;;;;;;;3.00;2.00;;;;;;;;5103507;27;61793;-78
2022/09/08 08:36:15;;;;;;;;;3.33;2.00;;;;;;;;5102628;27;64882;-78
2022/09/08 08:38:42;;;;;;;;;1.00;0.33;;;;;;;;5103681;27;62016;-78
2022/09/08 08:41:26;;;;;;;;;2.67;1.67;;;;;;;;5103566;27;62027;-79
2022/09/08 08:43:55;;;;;;;;;1.33;1.00;;;;;;;;5103730;27;61811;-78
2022/09/08 08:46:39;;;;;;;;;2.25;1.25;;;;;;;;5102622;27;64071;-78
2022/09/08 08:49:04;;;;;;;;;2.75;2.00;;;;;;;;5103506;27;61845;-78
2022/09/08 08:51:33;;;;;;;;;0.00;0.00;;;;;;;;5103165;27;62043;-78
2022/09/08 08:54:21;;;;;;;;;1.00;1.00;;;;;;;;5104577;27;61909;-78
2022/09/08 08:56:47;;;;;;;;;2.67;1.00;;;;;;;;5100834;27;63130;-78
2022/09/08 08:59:13;;;;;;;;;2.00;0.33;;;;;;;;5104468;27;61867;-78
2022/09/08 09:01:47;;;;;;;;;2.00;2.00;;;;;;;;5104443;27;61887;-77
2022/09/08 09:04:33;;;;;;;;;1.00;1.00;;;;;;;;5103298;27;62100;-78
2022/09/08 09:07:04;;;;;;;;;2.00;1.00;;;;;;;;5102200;27;64915;-79
2022/09/08 09:09:42;;;;;;;;;1.00;1.00;;;;;;;;5103112;27;62098;-78
2022/09/08 09:12:16;;;;;;;;;1.33;1.33;;;;;;;;5103035;27;61761;-78
2022/09/08 09:15:00;;;;;;;;;4.00;1.00;;;;;;;;5104321;27;61776;-78
2022/09/08 09:17:26;;;;;;;;;1.00;0.67;;;;;;;;5102284;27;64961;-77
2022/09/08 09:19:57;;;;;;;;;4.33;1.00;;;;;;;;5102898;27;61799;-78
2022/09/08 09:22:25;;;;;;;;;5.00;2.00;;;;;;;;5103038;27;61800;-78
2022/09/08 09:25:09;;;;;;;;;2.33;1.67;;;;;;;;5103953;27;62122;-78
2022/09/08 09:27:55;;;;;;;;;2.67;1.33;;;;;;;;5103832;27;61784;-78
2022/09/08 09:30:22;;;;;;;;;3.67;1.33;;;;;;;;5102452;27;61986;-77
2022/09/08 09:33:17;;;;;;;;;3.00;2.00;;;;;;;;5102923;27;62397;-78
2022/09/08 09:35:58;;;;;;;;;5.00;0.67;;;;;;;;5102488;27;61916;-77
2022/09/08 09:38:23;;;;;;;;;2.67;0.67;;;;;;;;5101976;27;65086;-78
2022/09/08 09:41:08;;;;;;;;;4.00;0.33;;;;;;;;5102559;27;62007;-78
2022/09/08 09:43:37;;;;;;;;;3.00;1.00;;;;;;;;5083983;27;61806;-78
2022/09/08 09:46:21;;;;;;;;;0.00;0.00;;;;;;;;5101631;27;61964;-78
2022/09/08 09:48:52;;;;;;;;;1.00;1.00;;;;;;;;5101785;27;63527;-78
2022/09/08 09:51:21;;;;;;;;;1.33;1.33;;;;;;;;5102346;27;62087;-78
2022/09/08 09:53:46;;;;;;;;;2.00;2.00;;;;;;;;5102167;27;61912;-78
2022/09/08 09:56:17;;;;;;;;;3.67;2.00;;;;;;;;5102371;27;61865;-79
2022/09/08 09:58:51;;;;;;;;;1.00;1.00;;;;;;;;5103579;27;61893;-78
2022/09/08 10:01:20;;;;;;;;;1.00;1.00;;;;;;;;5101854;27;61839;-77
2022/09/08 10:03:59;;;;;;;;;2.67;1.00;;;;;;;;5102054;27;61785;-78
2022/09/08 10:06:26;;;;;;;;;1.00;1.00;;;;;;;;5102167;27;62121;-78
2022/09/08 10:09:10;;;;;;;;;1.00;1.00;;;;;;;;5103169;27;61882;-78
2022/09/08 10:11:55;;;;;;;;;5.00;2.00;;;;;;;;5103582;27;61800;-78
2022/09/08 10:14:27;;;;;;;;;0.33;0.00;;;;;;;;5102003;27;62182;-78
2022/09/08 10:17:13;;;;;;;;;0.00;0.00;;;;;;;;5101473;27;61907;-78
2022/09/08 10:19:57;;;;;;;;;0.67;0.67;;;;;;;;5102691;27;62083;-79
2022/09/08 10:22:28;;;;;;;;;3.00;2.00;;;;;;;;5103041;27;61940;-78
2022/09/08 10:24:56;;;;;;;;;3.00;0.67;;;;;;;;5103320;27;61746;-77
2022/09/08 10:27:31;;;;;;;;;2.00;2.00;;;;;;;;5101898;27;61806;-78
2022/09/08 10:29:59;;;;;;;;;1.00;1.00;;;;;;;;5101088;27;63391;-78
2022/09/08 10:32:43;;;;;;;;;2.33;0.33;;;;;;;;5101661;27;61753;-78
2022/09/08 10:35:37;;;;;;;;;0.67;0.33;;;;;;;;5101713;27;61892;-78
2022/09/08 10:38:07;;;;;;;;;0.67;0.67;;;;;;;;5087447;27;61831;-78
2022/09/08 10:40:51;;;;;;;;;0.67;0.67;;;;;;;;5101024;27;63944;-78
2022/09/08 10:43:35;;;;;;;;;1.67;0.67;;;;;;;;5101745;27;61831;-78
2022/09/08 10:46:09;;;;;;;;;0.00;0.00;;;;;;;;5102635;27;61868;-78
2022/09/08 10:48:34;;;;;;;;;0.00;0.00;;;;;;;;5101712;27;61767;-77
2022/09/08 10:51:23;;;;;;;;;4.33;1.00;;;;;;;;5101116;27;63705;-79
2022/09/08 10:53:48;;;;;;;;;1.00;1.00;;;;;;;;5042664;28;62189;-78
2022/09/08 10:56:15;;;;;;;;;1.00;1.00;;;;;;;;5059028;28;62423;-78
2022/09/08 10:58:57;;;;;;;;;1.00;1.00;;;;;;;;5059996;28;61780;-79
2022/09/08 11:01:38;;;;;;;;;0.00;0.00;;;;;;;;5058461;28;62889;-78
2022/09/08 11:04:22;;;;;;;;;1.67;0.00;;;;;;;;5042758;28;61782;-78
2022/09/08 11:06:50;;;;;;;;;0.67;0.00;;;;;;;;5059834;28;62241;-78
2022/09/08 11:09:41;;;;;;;;;1.00;1.00;;;;;;;;5059840;28;61915;-78
2022/09/08 11:12:25;;;;;;;;;1.67;0.00;;;;;;;;5042411;28;61900;-78
2022/09/08 11:15:00;;;;;;;;;0.67;0.00;;;;;;;;5059051;28;62012;-78
2022/09/08 11:17:27;;;;;;;;;1.33;0.33;;;;;;;;5041819;28;61986;-78
2022/09/08 11:20:17;;;;;;;;;2.00;1.00;;;;;;;;5059614;28;61961;-78
2022/09/08 11:23:00;;;;;;;;;0.00;0.00;;;;;;;;5058579;28;63278;-78
2022/09/08 11:25:44;;;;;;;;;2.33;0.67;;;;;;;;5058750;28;62356;-79
2022/09/08 11:28:35;;;;;;;;;0.00;0.00;;;;;;;;5042305;28;62029;-79
2022/09/08 11:31:16;;;;;;;;;0.00;0.00;;;;;;;;5073730;27;62046;-79
2022/09/08 11:33:41;;;;;;;;;1.00;1.00;;;;;;;;5101861;27;62268;-78
2022/09/08 11:36:06;;;;;;;;;2.67;0.00;;;;;;;;5102453;27;62083;-78
2022/09/08 11:38:55;;;;;;;;;2.67;0.67;;;;;;;;5101172;27;61888;-79
2022/09/08 11:41:30;;;;;;;;;0.00;0.00;;;;;;;;5101265;27;62546;-80
2022/09/08 11:44:01;;;;;;;;;0.00;0.00;;;;;;;;5101990;27;62132;-79
2022/09/08 11:46:26;;;;;;;;;0.00;0.00;;;;;;;;5100348;27;61914;-79
2022/09/08 11:49:04;;;;;;;;;0.00;0.00;;;;;;;;5101095;27;61893;-79
2022/09/08 11:51:33;;;;;;;;;0.00;0.00;;;;;;;;5102510;27;61895;-80
2022/09/08 11:54:04;;;;;;;;;0.67;0.00;;;;;;;;5100034;27;63625;-80
2022/09/08 11:56:36;;;;;;;;;3.00;0.00;;;;;;;;5100724;27;61951;-81
2022/09/08 11:59:11;;;;;;;;;0.00;0.00;;;;;;;;5102253;27;61843;-78
2022/09/08 12:01:55;;;;;;;;;0.00;0.00;;;;;;;;5100252;27;61859;-79
2022/09/08 12:04:28;;;;;;;;;0.67;0.00;;;;;;;;5101710;27;61997;-79
2022/09/08 12:06:54;;;;;;;;;1.33;0.00;;;;;;;;5100645;27;61867;-80
2022/09/08 12:09:38;;;;;;;;;0.00;0.00;;;;;;;;5103885;27;62136;-79
2022/09/08 12:12:11;;;;;;;;;0.67;0.67;;;;;;;;5105907;27;61863;-79
2022/09/08 12:14:36;;;;;;;;;2.00;0.00;;;;;;;;5102986;27;63882;-80
2022/09/08 12:17:20;;;;;;;;;0.67;0.67;;;;;;;;5103370;27;61886;-78
2022/09/08 12:19:55;;;;;;;;;0.33;0.33;;;;;;;;5105720;27;61676;-80
2022/09/08 12:22:53;;;;;;;;;0.67;0.00;;;;;;;;5104169;27;61720;-78
2022/09/08 12:25:27;;;;;;;;;0.00;0.00;;;;;;;;5060732;28;62071;-78
2022/09/08 12:28:01;;;;;;;;;1.67;0.00;;;;;;;;5044663;28;62050;-77
2022/09/08 12:30:41;;;;;;;;;2.00;0.67;;;;;;;;5061927;28;61935;-78
2022/09/08 12:33:22;;;;;;;;;0.00;0.00;;;;;;;;5062189;28;61996;-79
2022/09/08 12:35:49;;;;;;;;;0.00;0.00;;;;;;;;5044379;28;65348;-78
2022/09/08 12:38:21;;;;;;;;;1.67;1.00;;;;;;;;5045147;28;61783;-79
2022/09/08 12:41:05;;;;;;;;;3.00;0.00;;;;;;;;5044906;28;61818;-79
2022/09/08 12:43:53;;;;;;;;;0.00;0.00;;;;;;;;5044868;28;62115;-79
2022/09/08 12:46:24;;;;;;;;;1.00;1.00;;;;;;;;5043790;28;63838;-79
2022/09/08 12:48:55;;;;;;;;;4.67;0.33;;;;;;;;5061555;28;61808;-78
2022/09/08 12:51:38;;;;;;;;;0.67;0.67;;;;;;;;5044729;28;61895;-79
2022/09/08 12:54:23;;;;;;;;;0.00;0.00;;;;;;;;5061713;28;61861;-78
2022/09/08 12:57:03;;;;;;;;;0.00;0.00;;;;;;;;5060632;28;61754;-78
2022/09/08 12:59:48;;;;;;;;;0.67;0.00;;;;;;;;5044683;28;62155;-76
2022/09/08 13:02:26;;;;;;;;;0.33;0.00;;;;;;;;5104634;27;61921;-77
2022/09/08 13:04:54;;;;;;;;;0.67;0.00;;;;;;;;5103607;27;62139;-77
2022/09/08 13:07:28;;;;;;;;;0.00;0.00;;;;;;;;5104045;27;63028;-78
2022/09/08 13:10:09;;;;;;;;;2.00;0.00;;;;;;;;5104681;27;61963;-78
2022/09/08 13:12:53;;;;;;;;;0.00;0.00;;;;;;;;5103404;27;61971;-77
2022/09/08 13:15:29;;;;;;;;;0.33;0.33;;;;;;;;5103176;27;61886;-78
2022/09/08 13:18:03;;;;;;;;;0.00;0.00;;;;;;;;5102261;27;63341;-78
2022/09/08 13:20:29;;;;;;;;;0.00;0.00;;;;;;;;5103335;27;61932;-77
2022/09/08 13:23:23;;;;;;;;;0.00;0.00;;;;;;;;5104274;27;61841;-78
2022/09/08 13:25:52;;;;;;;;;1.00;1.00;;;;;;;;5089329;27;62147;-79
2022/09/08 13:28:26;;;;;;;;;0.00;0.00;;;;;;;;5104018;27;61814;-78
2022/09/08 13:31:00;;;;;;;;;0.00;0.00;;;;;;;;5103906;27;61768;-79
2022/09/08 13:33:25;;;;;;;;;1.00;0.00;;;;;;;;5102855;27;61942;-77
2022/09/08 13:35:53;;;;;;;;;0.33;0.00;;;;;;;;5104145;27;62056;-76
2022/09/08 13:38:28;;;;;;;;;1.00;0.00;;;;;;;;5102440;27;64024;-77
2022/09/08 13:41:03;;;;;;;;;0.00;0.00;;;;;;;;5102478;27;61923;-78
2022/09/08 13:43:43;;;;;;;;;0.00;0.00;;;;;;;;5101726;27;62661;-78
2022/09/08 13:46:28;;;;;;;;;0.00;0.00;;;;;;;;5099819;27;62057;-78
2022/09/08 13:49:12;;;;;;;;;0.33;0.00;;;;;;;;5098862;27;63575;-78
2022/09/08 13:51:57;;;;;;;;;0.00;0.00;;;;;;;;5099817;27;61864;-78
2022/09/08 13:54:26;;;;;;;;;0.00;0.00;;;;;;;;5100350;27;61925;-78
2022/09/08 13:56:54;;;;;;;;;0.33;0.00;;;;;;;;5102237;27;62117;-79
2022/09/08 13:59:37;;;;;;;;;1.67;0.00;;;;;;;;5101650;27;62126;-78
2022/09/08 14:02:15;;;;;;;;;0.00;0.00;;;;;;;;5101261;27;62326;-78
2022/09/08 14:04:41;;;;;;;;;1.67;0.00;;;;;;;;5100817;27;61947;-77
2022/09/08 14:07:07;;;;;;;;;1.00;0.00;;;;;;;;5103350;27;62062;-77
2022/09/08 14:09:33;;;;;;;;;0.00;0.00;;;;;;;;5100147;27;63562;-76
2022/09/08 14:11:59;;;;;;;;;0.33;0.00;;;;;;;;5101926;27;62180;-76
2022/09/08 14:14:33;;;;;;;;;1.67;0.00;;;;;;;;5101295;27;61946;-76
2022/09/08 14:17:17;;;;;;;;;0.00;0.00;;;;;;;;5101763;27;62332;-76
2022/09/08 14:19:58;;;;;;;;;1.00;0.00;;;;;;;;5121070;27;63554;-75
2022/09/08 14:22:30;;;;;;;;;0.00;0.00;;;;;;;;5109177;27;62071;-76
2022/09/08 14:25:03;;;;;;;;;0.00;0.00;;;;;;;;5109734;27;61862;-76
2022/09/08 14:27:31;;;;;;;;;0.00;0.00;;;;;;;;5109212;27;62294;-74
2022/09/08 14:29:57;;;;;;;;;0.00;0.00;;;;;;;;5110095;27;61699;-76
2022/09/08 14:32:27;;;;;;;;;0.00;0.00;;;;;;;;5111577;27;61769;-76
2022/09/08 14:35:16;;;;;;;;;0.00;0.00;;;;;;;;5113125;27;61865;-75
2022/09/08 14:38:02;;;;;;;;;0.00;0.00;;;;;;;;5107333;27;61940;-76
2022/09/08 14:40:36;;;;;;;;;0.00;0.00;;;;;;;;5107758;27;61940;-75
2022/09/08 14:43:14;;;;;;;;;1.00;0.00;;;;;;;;5106810;27;61901;-75
2022/09/08 14:45:45;;;;;;;;;1.00;0.00;;;;;;;;5108431;27;61824;-75
2022/09/08 14:48:12;;;;;;;;;0.67;0.00;;;;;;;;5111114;27;61859;-74
2022/09/08 14:50:57;;;;;;;;;0.00;0.00;;;;;;;;5119204;27;63728;-76
2022/09/08 14:53:28;;;;;;;;;0.00;0.00;;;;;;;;5120279;27;62080;-81
2022/09/08 14:56:15;;;;;;;;;0.00;0.00;;;;;;;;5109690;27;61967;-75
2022/09/08 14:58:49;;;;;;;;;0.00;0.00;;;;;;;;5106873;27;62400;-75
2022/09/08 15:01:24;;;;;;;;;0.00;0.00;;;;;;;;5112637;27;62072;-75
2022/09/08 15:04:12;;;;;;;;;0.00;0.00;;;;;;;;5110552;27;61838;-75
2022/09/08 15:06:41;;;;;;;;;0.00;0.00;;;;;;;;5104674;27;61936;-75
2022/09/08 15:09:23;;;;;;;;;2.00;1.00;;;;;;;;5104587;27;62020;-76
2022/09/08 15:11:51;;;;;;;;;1.00;0.00;;;;;;;;5100025;27;61772;-76
2022/09/08 15:14:29;;;;;;;;;1.00;0.00;;;;;;;;5099676;27;62177;-75
2022/09/08 15:17:15;;;;;;;;;0.67;0.00;;;;;;;;5096310;27;62751;-75